Time;durP1;ratioP1;P1;durP2;ratioP2;P2;SDS_P1;SDS_P2;PMS_P1;PMS_P2;Temp;Humidity;BMP_temperature;BMP_pressure;BME280_temperature;BME280_humidity;BME280_pressure;Samples;Min_cycle;Max_cycle;Signal;HPM_P1;HPM_P2
2022/03/18 00:01:18;;;;;;;;;;;102.60;2227.20;;;;;;5068497;28;20369;-77
2022/03/18 00:03:44;;;;;;;;;;;102.60;2227.20;;;;;;5063397;28;20332;-77
2022/03/18 00:06:10;;;;;;;;;;;102.60;2227.20;;;;;;5072201;28;19912;-78
2022/03/18 00:08:36;;;;;;;;;;;102.50;2227.20;;;;;;5075781;28;19905;-78
2022/03/18 00:11:02;;;;;;;;;;;102.50;2227.20;;;;;;5076150;28;19911;-78
2022/03/18 00:13:27;;;;;;;;;;;102.50;2227.20;;;;;;5075982;28;19904;-78
2022/03/18 00:15:54;;;;;;;;;;;102.50;2227.20;;;;;;5076041;28;19912;-78
2022/03/18 00:18:20;;;;;;;;;;;102.50;2227.20;;;;;;5076406;28;19915;-78
2022/03/18 00:20:45;;;;;;;;;;;102.40;2227.20;;;;;;5076376;28;19905;-78
2022/03/18 00:23:12;;;;;;;;;;;102.40;2227.20;;;;;;5076152;28;20330;-78
2022/03/18 00:25:37;;;;;;;;;;;102.50;2227.20;;;;;;5077231;28;19904;-79
2022/03/18 00:28:03;;;;;;;;;;;102.50;2227.20;;;;;;5075734;28;19927;-78
2022/03/18 00:30:29;;;;;;;;;;;102.50;2227.20;;;;;;5075918;28;19909;-78
2022/03/18 00:32:54;;;;;;;;;;;102.50;2227.20;;;;;;5075742;28;19909;-78
2022/03/18 00:35:20;;;;;;;;;;;102.40;2227.20;;;;;;5075509;28;19923;-79
2022/03/18 00:37:45;;;;;;;;;;;102.40;2227.20;;;;;;5076468;28;19912;-78
2022/03/18 00:40:11;;;;;;;;;;;102.40;2227.20;;;;;;5075601;28;20312;-78
2022/03/18 00:42:37;;;;;;;;;;;102.40;2227.20;;;;;;5076159;28;19905;-78
2022/03/18 00:45:04;;;;;;;;;;;102.40;2227.20;;;;;;5075654;28;19949;-78
2022/03/18 00:52:58;;;;;;;;;;;102.50;2227.20;;;;;;5076800;28;19911;-78
2022/03/18 00:55:24;;;;;;;;;;;102.50;2227.20;;;;;;5076919;28;19912;-78
2022/03/18 00:57:49;;;;;;;;;;;102.50;2227.20;;;;;;5076465;28;19908;-78
2022/03/18 01:00:15;;;;;;;;;;;102.50;2227.20;;;;;;5076977;28;20332;-78
2022/03/18 01:02:41;;;;;;;;;;;102.60;2227.20;;;;;;5075402;28;19950;-78
2022/03/18 01:05:07;;;;;;;;;;;102.50;2227.20;;;;;;5076773;28;20255;-78
2022/03/18 01:07:32;;;;;;;;;;;102.50;2227.20;;;;;;5076294;28;19916;-78
2022/03/18 01:09:58;;;;;;;;;;;77.70;2227.20;;;;;;5075453;28;19904;-78
2022/03/18 01:12:24;;;;;;;;;;;77.70;2227.20;;;;;;5076686;28;19912;-78
2022/03/18 01:14:50;;;;;;;;;;;77.70;2227.20;;;;;;5075016;28;20014;-78
2022/03/18 01:17:15;;;;;;;;;;;102.40;2227.20;;;;;;5075074;28;19955;-78
2022/03/18 01:19:41;;;;;;;;;;;77.70;2227.20;;;;;;5074945;28;19947;-78
2022/03/18 01:22:09;;;;;;;;;;;77.60;2227.20;;;;;;5076275;28;19957;-78
2022/03/18 01:24:35;;;;;;;;;;;77.70;2227.20;;;;;;5075262;28;19935;-79
2022/03/18 01:27:01;;;;;;;;;;;77.70;2227.20;;;;;;5075081;28;19904;-78
2022/03/18 01:29:27;;;;;;;;;;;77.50;2227.20;;;;;;5076326;28;19911;-78
2022/03/18 01:31:52;;;;;;;;;;;77.60;2227.20;;;;;;5076027;28;19916;-77
2022/03/18 01:34:18;;;;;;;;;;;77.50;2227.20;;;;;;5074958;28;20372;-78
2022/03/18 01:36:44;;;;;;;;;;;77.50;2227.20;;;;;;5074664;28;20385;-78
2022/03/18 01:39:09;;;;;;;;;;;77.50;2227.20;;;;;;5074445;28;19909;-78
2022/03/18 01:41:35;;;;;;;;;;;77.50;2227.20;;;;;;5074408;28;20272;-78
2022/03/18 01:44:00;;;;;;;;;;;77.50;2227.20;;;;;;5075922;28;19912;-77
2022/03/18 01:46:26;;;;;;;;;;;77.70;2227.20;;;;;;5074686;28;20272;-78
2022/03/18 01:48:52;;;;;;;;;;;102.40;2227.20;;;;;;5074675;28;19908;-78
2022/03/18 01:51:18;;;;;;;;;;;102.40;2227.20;;;;;;5075671;28;20375;-78
2022/03/18 01:53:44;;;;;;;;;;;77.70;2227.20;;;;;;5073976;28;19957;-78
2022/03/18 01:56:11;;;;;;;;;;;77.70;2227.20;;;;;;5074554;28;19916;-78
2022/03/18 01:58:36;;;;;;;;;;;77.70;2227.20;;;;;;5074379;28;19904;-78
2022/03/18 02:01:02;;;;;;;;;;;77.70;2227.20;;;;;;5075289;28;20334;-78
2022/03/18 02:03:28;;;;;;;;;;;77.70;2227.20;;;;;;5075636;28;19908;-78
2022/03/18 02:05:53;;;;;;;;;;;102.40;2227.20;;;;;;5074879;28;19905;-77
2022/03/18 02:08:20;;;;;;;;;;;102.40;2227.20;;;;;;5075397;28;20322;-78
2022/03/18 02:10:46;;;;;;;;;;;102.50;2227.20;;;;;;5074414;28;20275;-78
2022/03/18 02:13:11;;;;;;;;;;;102.50;2227.20;;;;;;5074137;28;19909;-78
2022/03/18 02:15:37;;;;;;;;;;;102.50;2227.20;;;;;;5075221;28;19913;-78
2022/03/18 02:18:04;;;;;;;;;;;102.50;2227.20;;;;;;5075022;28;19950;-77
2022/03/18 02:20:31;;;;;;;;;;;102.50;2227.20;;;;;;5075294;28;19915;-78
2022/03/18 02:22:57;;;;;;;;;;;102.50;2227.20;;;;;;5075166;28;20001;-78
2022/03/18 02:25:22;;;;;;;;;;;102.50;2227.20;;;;;;5074609;28;19908;-78
2022/03/18 02:27:58;;;;;;;;;;;102.60;2227.20;;;;;;5074971;28;20356;-78
2022/03/18 02:30:24;;;;;;;;;;;102.80;2227.20;;;;;;5073941;28;19908;-77
2022/03/18 02:32:50;;;;;;;;;;;102.60;2227.20;;;;;;5073714;28;19912;-77
2022/03/18 02:35:15;;;;;;;;;;;102.70;2227.20;;;;;;5073705;28;19912;-78
2022/03/18 02:37:41;;;;;;;;;;;102.60;2227.20;;;;;;5074318;28;19904;-77
2022/03/18 02:40:07;;;;;;;;;;;102.70;2227.20;;;;;;5073582;28;20390;-78
2022/03/18 02:42:33;;;;;;;;;;;102.80;2227.20;;;;;;5073363;28;19911;-78
2022/03/18 02:45:00;;;;;;;;;;;102.90;2227.20;;;;;;5072507;28;19909;-78
2022/03/18 02:47:26;;;;;;;;;;;102.90;2227.20;;;;;;5073608;28;19904;-78
2022/03/18 02:49:52;;;;;;;;;;;102.90;2227.20;;;;;;5074421;28;19905;-78
2022/03/18 02:52:17;;;;;;;;;;;102.90;2227.20;;;;;;5073059;28;20286;-78
2022/03/18 02:54:43;;;;;;;;;;;102.90;2227.20;;;;;;5072874;28;19913;-77
2022/03/18 02:57:09;;;;;;;;;;;102.90;2227.20;;;;;;5073416;28;20367;-78
2022/03/18 02:59:35;;;;;;;;;;;102.90;2227.20;;;;;;5073160;28;19950;-77
2022/03/18 03:02:00;;;;;;;;;;;103.00;2227.20;;;;;;5074238;28;19909;-78
2022/03/18 03:04:26;;;;;;;;;;;103.10;2227.20;;;;;;5074441;28;20267;-78
2022/03/18 03:09:35;;;;;;;;;;;103.10;2227.20;;;;;;5074669;28;20014;-78
2022/03/18 03:12:01;;;;;;;;;;;103.10;2227.20;;;;;;5073441;28;19904;-78
2022/03/18 03:14:27;;;;;;;;;;;103.00;2227.20;;;;;;5074416;28;20279;-78
2022/03/18 03:16:52;;;;;;;;;;;103.00;2227.20;;;;;;5072901;28;20003;-78
2022/03/18 03:19:18;;;;;;;;;;;103.10;2227.20;;;;;;5074207;28;19904;-79
2022/03/18 03:21:44;;;;;;;;;;;103.10;2227.20;;;;;;5073975;28;19965;-78
2022/03/18 03:24:09;;;;;;;;;;;103.00;2227.20;;;;;;5073835;28;19905;-78
2022/03/18 03:26:35;;;;;;;;;;;103.00;2227.20;;;;;;5072776;28;19948;-78
2022/03/18 03:29:01;;;;;;;;;;;103.10;2227.20;;;;;;5072808;28;19908;-78
2022/03/18 03:31:26;;;;;;;;;;;103.00;2227.20;;;;;;5072834;28;19909;-78
2022/03/18 03:33:52;;;;;;;;;;;103.00;2227.20;;;;;;5072745;28;19931;-78
2022/03/18 03:36:18;;;;;;;;;;;103.00;2227.20;;;;;;5072149;28;20001;-78
2022/03/18 03:38:43;;;;;;;;;;;103.00;2227.20;;;;;;5072450;28;20355;-78
2022/03/18 03:41:09;;;;;;;;;;;103.20;2227.20;;;;;;5073611;28;19905;-77
2022/03/18 03:43:35;;;;;;;;;;;103.10;2227.20;;;;;;5072764;28;19905;-78
2022/03/18 03:46:00;;;;;;;;;;;103.10;2227.20;;;;;;5073548;28;19904;-77
2022/03/18 03:48:26;;;;;;;;;;;103.10;2227.20;;;;;;5074080;28;19905;-78
2022/03/18 03:50:52;;;;;;;;;;;103.10;2227.20;;;;;;5072438;28;19949;-78
2022/03/18 03:53:17;;;;;;;;;;;103.10;2227.20;;;;;;5072464;28;19979;-78
2022/03/18 03:55:43;;;;;;;;;;;103.00;2227.20;;;;;;5072091;28;19912;-78
2022/03/18 03:58:08;;;;;;;;;;;103.00;2227.20;;;;;;5073955;28;19905;-78
2022/03/18 04:00:36;;;;;;;;;;;103.00;2227.20;;;;;;5073591;28;19909;-78
2022/03/18 04:03:02;;;;;;;;;;;102.90;2227.20;;;;;;5072692;28;19916;-78
2022/03/18 04:05:28;;;;;;;;;;;102.90;2227.20;;;;;;5073755;28;19908;-78
2022/03/18 04:07:54;;;;;;;;;;;102.90;2227.20;;;;;;5073870;28;20312;-78
2022/03/18 04:10:20;;;;;;;;;;;102.90;2227.20;;;;;;5073511;28;19912;-77
2022/03/18 04:12:46;;;;;;;;;;;102.90;2227.20;;;;;;5072310;28;19904;-77
2022/03/18 04:15:11;;;;;;;;;;;102.90;2227.20;;;;;;5072362;28;20364;-77
2022/03/18 04:17:38;;;;;;;;;;;103.00;2227.20;;;;;;5072390;28;19955;-77
2022/03/18 04:20:05;;;;;;;;;;;102.90;2227.20;;;;;;5073498;28;19915;-77
2022/03/18 04:22:30;;;;;;;;;;;102.90;2227.20;;;;;;5072371;28;19908;-78
2022/03/18 04:24:57;;;;;;;;;;;102.90;2227.20;;;;;;5073230;28;20253;-78
2022/03/18 04:27:23;;;;;;;;;;;102.80;2227.20;;;;;;5072278;28;20481;-78
2022/03/18 04:29:48;;;;;;;;;;;102.90;2227.20;;;;;;5072303;28;19947;-78
2022/03/18 04:32:14;;;;;;;;;;;102.90;2227.20;;;;;;5072022;28;20367;-78
2022/03/18 04:34:39;;;;;;;;;;;103.00;2227.20;;;;;;5073537;28;19955;-78
2022/03/18 04:37:05;;;;;;;;;;;102.90;2227.20;;;;;;5072232;28;19912;-78
2022/03/18 04:39:30;;;;;;;;;;;102.90;2227.20;;;;;;5073283;28;19957;-78
2022/03/18 04:41:56;;;;;;;;;;;102.90;2227.20;;;;;;5072109;28;19987;-78
2022/03/18 04:44:21;;;;;;;;;;;102.90;2227.20;;;;;;5072280;28;19905;-78
2022/03/18 04:46:48;;;;;;;;;;;103.00;2227.20;;;;;;5072129;28;19904;-77
2022/03/18 04:49:14;;;;;;;;;;;103.00;2227.20;;;;;;5072182;28;19950;-78
2022/03/18 04:51:39;;;;;;;;;;;102.90;2227.20;;;;;;5071911;28;20329;-78
2022/03/18 04:54:05;;;;;;;;;;;103.10;2227.20;;;;;;5076355;28;19911;-78
2022/03/18 04:59:14;;;;;;;;;;;102.90;2227.20;;;;;;5076995;28;19911;-78
2022/03/18 05:01:40;;;;;;;;;;;102.90;2227.20;;;;;;5075568;28;19912;-78
2022/03/18 05:04:06;;;;;;;;;;;102.90;2227.20;;;;;;5076263;28;19960;-78
2022/03/18 05:06:33;;;;;;;;;;;102.90;2227.20;;;;;;5076459;28;20378;-78
2022/03/18 05:08:59;;;;;;;;;;;103.00;2227.20;;;;;;5075227;28;19911;-78
2022/03/18 05:11:24;;;;;;;;;;;103.00;2227.20;;;;;;5076532;28;19904;-78
2022/03/18 05:13:51;;;;;;;;;;;103.10;2201.60;;;;;;5075326;28;20003;-77
2022/03/18 05:16:17;;;;;;;;;;;103.10;2227.20;;;;;;5075072;28;20268;-78
2022/03/18 05:18:43;;;;;;;;;;;103.20;2227.20;;;;;;5076089;28;19996;-77
2022/03/18 05:21:08;;;;;;;;;;;103.10;2227.20;;;;;;5076404;28;20253;-77
2022/03/18 05:23:34;;;;;;;;;;;103.00;2227.20;;;;;;5074315;28;20238;-77
2022/03/18 05:25:59;;;;;;;;;;;103.10;2227.20;;;;;;5076196;28;19926;-78
2022/03/18 05:28:26;;;;;;;;;;;103.10;2227.20;;;;;;5075077;28;19904;-78
2022/03/18 05:30:52;;;;;;;;;;;103.30;2227.20;;;;;;5074849;28;19912;-76
2022/03/18 05:33:19;;;;;;;;;;;103.20;2227.20;;;;;;5076255;28;19909;-77
2022/03/18 05:35:45;;;;;;;;;;;103.20;2227.20;;;;;;5074823;28;19912;-77
2022/03/18 05:38:10;;;;;;;;;;;103.20;2227.20;;;;;;5076006;28;19908;-77
2022/03/18 05:40:36;;;;;;;;;;;103.30;2227.20;;;;;;5075753;28;19948;-77
2022/03/18 05:43:01;;;;;;;;;;;128.00;2252.80;;;;;;5075776;28;19912;-77
2022/03/18 05:45:27;;;;;;;;;;;128.00;2252.80;;;;;;5074625;28;19959;-77
2022/03/18 05:47:53;;;;;;;;;;;128.00;2252.80;;;;;;5074532;28;19905;-77
2022/03/18 05:50:19;;;;;;;;;;;128.10;2252.80;;;;;;5075718;28;20106;-77
2022/03/18 05:52:45;;;;;;;;;;;128.20;2227.20;;;;;;5075414;28;19904;-77
2022/03/18 05:55:10;;;;;;;;;;;128.30;2176.00;;;;;;5073955;28;20378;-77
2022/03/18 05:57:36;;;;;;;;;;;128.40;2176.00;;;;;;5074290;28;20263;-77
2022/03/18 06:00:02;;;;;;;;;;;128.40;2150.40;;;;;;5073757;28;19911;-77
2022/03/18 06:02:28;;;;;;;;;;;128.30;2150.40;;;;;;5074785;28;20409;-78
2022/03/18 06:04:53;;;;;;;;;;;128.10;2150.40;;;;;;5074312;28;19904;-78
2022/03/18 06:07:19;;;;;;;;;;;128.20;2176.00;;;;;;5075435;28;19951;-77
2022/03/18 06:12:29;;;;;;;;;;;128.00;2150.40;;;;;;5075777;28;20413;-78
2022/03/18 06:14:54;;;;;;;;;;;103.30;2099.20;;;;;;5073717;28;19913;-77
2022/03/18 06:17:20;;;;;;;;;;;128.10;2150.40;;;;;;5074530;28;20263;-78
2022/03/18 06:19:46;;;;;;;;;;;128.10;2150.40;;;;;;5075488;28;19911;-78
2022/03/18 06:22:11;;;;;;;;;;;128.10;2150.40;;;;;;5073575;28;19911;-80
2022/03/18 06:24:37;;;;;;;;;;;128.20;2150.40;;;;;;5075035;28;19952;-78
2022/03/18 06:27:03;;;;;;;;;;;128.10;2150.40;;;;;;5075087;28;19905;-77
2022/03/18 06:29:29;;;;;;;;;;;128.20;2176.00;;;;;;5075047;28;20024;-78
2022/03/18 06:31:55;;;;;;;;;;;128.40;2150.40;;;;;;5074932;28;20379;-79
2022/03/18 06:34:21;;;;;;;;;;;128.30;2176.00;;;;;;5075001;28;20010;-78
2022/03/18 06:36:47;;;;;;;;;;;128.20;2176.00;;;;;;5074030;28;19947;-78
2022/03/18 06:39:14;;;;;;;;;;;128.30;2150.40;;;;;;5075092;28;19986;-79
2022/03/18 06:41:39;;;;;;;;;;;128.20;2150.40;;;;;;5074058;28;19927;-79
2022/03/18 06:44:06;;;;;;;;;;;128.30;2176.00;;;;;;5074813;28;20364;-79
2022/03/18 06:46:32;;;;;;;;;;;128.30;2150.40;;;;;;5074885;28;19904;-79
2022/03/18 06:48:58;;;;;;;;;;;128.30;2124.80;;;;;;5073201;28;20406;-79
2022/03/18 06:51:23;;;;;;;;;;;128.60;2124.80;;;;;;5078434;28;19978;-81
2022/03/18 06:53:49;;;;;;;;;;;128.70;2099.20;;;;;;5083891;28;20268;-80
2022/03/18 06:56:14;;;;;;;;;;;128.80;2073.60;;;;;;5078702;28;19985;-77
2022/03/18 06:58:40;;;;;;;;;;;128.70;2048.00;;;;;;5074012;28;19909;-78
2022/03/18 07:01:06;;;;;;;;;;;128.90;2022.40;;;;;;5073088;28;19915;-78
2022/03/18 07:03:32;;;;;;;;;;;128.90;1971.20;;;;;;5072759;28;19908;-78
2022/03/18 07:05:57;;;;;;;;;;;153.70;1971.20;;;;;;5074438;28;19904;-79
2022/03/18 07:08:23;;;;;;;;;;;153.70;1894.40;;;;;;5073311;28;19904;-79
2022/03/18 07:10:49;;;;;;;;;;;153.80;1894.40;;;;;;5072956;28;20249;-78
2022/03/18 07:13:15;;;;;;;;;;;153.80;1894.40;;;;;;5074372;28;19911;-78
2022/03/18 07:15:41;;;;;;;;;;;153.90;1920.00;;;;;;5072899;28;20009;-78
2022/03/18 07:18:06;;;;;;;;;;;154.00;1894.40;;;;;;5074052;28;19978;-78
2022/03/18 07:20:33;;;;;;;;;;;154.20;1894.40;;;;;;5074036;28;19905;-77
2022/03/18 07:23:02;;;;;;;;;;;154.20;1868.80;;;;;;5083893;28;19915;-79
2022/03/18 07:25:28;;;;;;;;;;;154.40;1843.20;;;;;;5082495;28;19950;-77
2022/03/18 07:27:54;;;;;;;;;;;154.40;1817.60;;;;;;5081060;28;19912;-80
2022/03/18 07:30:19;;;;;;;;;;;179.20;1792.00;;;;;;5074406;28;20398;-77
2022/03/18 07:32:45;;;;;;;;;;;179.20;1817.60;;;;;;5084466;28;19918;-77
2022/03/18 07:35:11;;;;;;;;;;;154.50;1817.60;;;;;;5082143;28;20417;-77
2022/03/18 07:37:36;;;;;;;;;;;154.50;1792.00;;;;;;5085515;28;19911;-79
2022/03/18 07:40:02;;;;;;;;;;;179.20;1817.60;;;;;;5083558;28;20351;-78
2022/03/18 07:42:38;;;;;;;;;;;179.20;1792.00;;;;;;5083222;28;20272;-77
2022/03/18 07:45:04;;;;;;;;;;;154.50;1766.40;;;;;;5078493;28;19919;-78
2022/03/18 07:47:30;;;;;;;;;;;179.20;1766.40;;;;;;5081354;28;19912;-79
2022/03/18 07:49:55;;;;;;;;;;;179.40;1766.40;;;;;;5082263;28;20286;-76
2022/03/18 07:52:21;;;;;;;;;;;179.50;1766.40;;;;;;5083156;28;19908;-77
2022/03/18 07:54:46;;;;;;;;;;;179.70;1740.80;;;;;;5079460;28;20058;-77
2022/03/18 07:57:13;;;;;;;;;;;179.80;1740.80;;;;;;5071776;28;20003;-77
2022/03/18 07:59:38;;;;;;;;;;;179.90;1740.80;;;;;;5074730;28;19904;-78
2022/03/18 08:02:04;;;;;;;;;;;179.80;1689.60;;;;;;5077509;28;19914;-79
2022/03/18 08:04:29;;;;;;;;;;;179.90;1689.60;;;;;;5081086;28;19909;-77
2022/03/18 08:06:55;;;;;;;;;;;180.10;1689.60;;;;;;5084924;28;19908;-77
2022/03/18 08:09:21;;;;;;;;;;;180.00;1664.00;;;;;;5081654;28;19904;-77
2022/03/18 08:11:46;;;;;;;;;;;180.10;1664.00;;;;;;5085441;28;19947;-78
2022/03/18 08:14:12;;;;;;;;;;;180.10;1638.40;;;;;;5092520;28;19904;-77
2022/03/18 08:16:37;;;;;;;;;;;180.00;1664.00;;;;;;5093786;28;19999;-77
2022/03/18 08:19:03;;;;;;;;;;;180.10;1664.00;;;;;;5093769;28;20267;-77
2022/03/18 08:21:32;;;;;;;;;;;180.00;1664.00;;;;;;5092625;28;20409;-77
2022/03/18 08:23:58;;;;;;;;;;;180.10;1638.40;;;;;;5092291;28;19904;-76
2022/03/18 08:26:23;;;;;;;;;;;180.10;1612.80;;;;;;5092406;28;20244;-77
2022/03/18 08:28:49;;;;;;;;;;;204.80;1638.40;;;;;;5097029;28;19957;-78
2022/03/18 08:31:15;;;;;;;;;;;205.00;1638.40;;;;;;5095943;28;20367;-78
2022/03/18 08:33:40;;;;;;;;;;;205.10;1612.80;;;;;;5097609;28;20275;-78
2022/03/18 08:36:06;;;;;;;;;;;205.20;1638.40;;;;;;5096056;28;19918;-78
2022/03/18 08:38:32;;;;;;;;;;;204.90;1587.20;;;;;;5096365;28;19908;-78
2022/03/18 08:40:57;;;;;;;;;;;204.80;1587.20;;;;;;5097250;28;20373;-77
2022/03/18 08:43:23;;;;;;;;;;;204.80;1587.20;;;;;;5095999;28;19904;-78
2022/03/18 08:45:50;;;;;;;;;;;204.80;1587.20;;;;;;5096089;28;19951;-77
2022/03/18 08:48:16;;;;;;;;;;;205.00;1561.60;;;;;;5096017;28;19912;-78
2022/03/18 08:50:42;;;;;;;;;;;205.10;1561.60;;;;;;5095684;28;19985;-77
2022/03/18 08:53:10;;;;;;;;;;;205.20;1561.60;;;;;;5095806;28;19904;-77
2022/03/18 08:55:36;;;;;;;;;;;205.40;1561.60;;;;;;5095636;28;19929;-77
2022/03/18 08:58:02;;;;;;;;;;;205.50;1561.60;;;;;;5094184;28;19915;-77
2022/03/18 09:00:29;;;;;;;;;;;205.50;1536.00;;;;;;5087012;28;19908;-78
2022/03/18 09:02:54;;;;;;;;;;;205.50;1536.00;;;;;;5084396;28;19908;-79
2022/03/18 09:05:20;;;;;;;;;;;205.40;1510.40;;;;;;5084816;28;20352;-79
2022/03/18 09:07:46;;;;;;;;;;;205.50;1510.40;;;;;;5086110;28;20314;-77
2022/03/18 09:10:12;;;;;;;;;;;230.40;1561.60;;;;;;5084616;28;19909;-78
2022/03/18 09:12:48;;;;;;;;;;;230.60;1536.00;;;;;;5075284;28;19904;-78
2022/03/18 09:15:14;;;;;;;;;;;230.60;1510.40;;;;;;5076394;28;19918;-78
2022/03/18 09:17:40;;;;;;;;;;;230.60;1510.40;;;;;;5082860;28;19908;-78
2022/03/18 09:20:06;;;;;;;;;;;230.60;1484.80;;;;;;5084208;28;19904;-78
2022/03/18 09:22:31;;;;;;;;;;;230.70;1459.20;;;;;;5086531;28;20278;-78
2022/03/18 09:24:57;;;;;;;;;;;230.60;1459.20;;;;;;5089433;28;20358;-78
2022/03/18 09:27:23;;;;;;;;;;;230.60;1459.20;;;;;;5095292;28;20430;-79
2022/03/18 09:29:48;;;;;;;;;;;230.70;1459.20;;;;;;5095495;28;19951;-78
2022/03/18 09:32:15;;;;;;;;;;;230.80;1459.20;;;;;;5096136;28;20417;-78
2022/03/18 09:34:41;;;;;;;;;;;230.70;1433.60;;;;;;5095106;28;20358;-78
2022/03/18 09:37:06;;;;;;;;;;;230.90;1433.60;;;;;;5095035;28;19915;-78
2022/03/18 09:39:32;;;;;;;;;;;230.90;1433.60;;;;;;5095075;28;19958;-78
2022/03/18 09:41:58;;;;;;;;;;;231.10;1459.20;;;;;;5094924;28;19907;-78
2022/03/18 09:44:23;;;;;;;;;;;231.20;1433.60;;;;;;5095096;28;19942;-78
2022/03/18 09:46:50;;;;;;;;;;;231.20;1433.60;;;;;;5096159;28;20377;-78
2022/03/18 09:49:17;;;;;;;;;;;231.20;1382.40;;;;;;5095179;28;19904;-78
2022/03/18 09:51:42;;;;;;;;;;;231.10;1408.00;;;;;;5095905;28;19923;-78
2022/03/18 09:54:09;;;;;;;;;;;231.10;1408.00;;;;;;5094462;28;19904;-78
2022/03/18 09:56:34;;;;;;;;;;;231.20;1408.00;;;;;;5094844;28;19912;-77
2022/03/18 09:59:00;;;;;;;;;;;231.10;1408.00;;;;;;5094576;28;19908;-78
2022/03/18 10:01:26;;;;;;;;;;;231.30;1408.00;;;;;;5094401;28;19999;-76
2022/03/18 10:03:51;;;;;;;;;;;256.10;1382.40;;;;;;5094731;28;19915;-76
2022/03/18 10:06:17;;;;;;;;;;;256.10;1382.40;;;;;;5093791;28;19999;-75
2022/03/18 10:08:42;;;;;;;;;;;256.00;1356.80;;;;;;5085350;28;20260;-76
2022/03/18 10:11:20;;;;;;;;;;;231.30;1331.20;;;;;;5083768;28;19903;-76
2022/03/18 10:13:52;;;;;;;;;;;256.10;1356.80;;;;;;5082335;28;19943;-78
2022/03/18 10:16:31;;;;;;;;;;;256.30;1331.20;;;;;;5083744;28;19996;-79
2022/03/18 10:18:56;;;;;;;;;;;256.30;1331.20;;;;;;5094651;28;19905;-78
2022/03/18 10:21:22;;;;;;;;;;;256.50;1305.60;;;;;;5074271;28;19908;-78
2022/03/18 10:23:48;;;;;;;;;;;256.60;1331.20;;;;;;5073828;28;19904;-78
2022/03/18 10:26:14;;;;;;;;;;;256.70;1305.60;;;;;;5075160;28;20314;-79
2022/03/18 10:28:41;;;;;;;;;;;256.70;1280.00;;;;;;5073739;28;19991;-78
2022/03/18 10:31:10;;;;;;;;;;;256.70;1305.60;;;;;;5079153;28;19908;-78
2022/03/18 10:39:23;;;;;;;;;;;256.80;1254.40;;;;;;5075215;28;20302;-78
2022/03/18 10:41:48;;;;;;;;;;;256.80;1280.00;;;;;;5073545;28;20275;-78
2022/03/18 10:44:16;;;;;;;;;;;256.90;1254.40;;;;;;5073524;28;19905;-78
2022/03/18 10:46:42;;;;;;;;;;;256.90;1254.40;;;;;;5073677;28;19986;-79
2022/03/18 10:49:07;;;;;;;;;;;256.90;1254.40;;;;;;5073447;28;19904;-79
2022/03/18 10:51:34;;;;;;;;;;;256.90;1254.40;;;;;;5072771;28;20368;-78
2022/03/18 10:53:59;;;;;;;;;;;281.70;1280.00;;;;;;5074733;28;20351;-78
2022/03/18 10:56:25;;;;;;;;;;;282.00;1280.00;;;;;;5079420;28;20015;-79
2022/03/18 10:58:51;;;;;;;;;;;282.00;1254.40;;;;;;5084246;28;20283;-78
2022/03/18 11:01:18;;;;;;;;;;;281.90;1254.40;;;;;;5084035;28;19930;-79
2022/03/18 11:03:45;;;;;;;;;;;282.10;1254.40;;;;;;5083238;28;19908;-79
2022/03/18 11:06:10;;;;;;;;;;;282.20;1254.40;;;;;;5076465;28;19955;-78
2022/03/18 11:08:42;;;;;;;;;;;282.40;1254.40;;;;;;5073259;28;19932;-78
2022/03/18 11:11:17;;;;;;;;;;;282.30;1228.80;;;;;;5082456;28;19915;-78
2022/03/18 11:13:52;;;;;;;;;;;282.40;1254.40;;;;;;5083853;28;19932;-79
2022/03/18 11:16:29;;;;;;;;;;;282.40;1228.80;;;;;;5089176;28;19911;-79
2022/03/18 11:18:54;;;;;;;;;;;282.30;1228.80;;;;;;5094444;28;19904;-79
2022/03/18 11:21:21;;;;;;;;;;;282.30;1228.80;;;;;;5083604;28;20006;-78
2022/03/18 11:23:48;;;;;;;;;;;282.40;1228.80;;;;;;5083373;28;19940;-78
2022/03/18 11:26:14;;;;;;;;;;;282.50;1228.80;;;;;;5081452;28;20275;-78
2022/03/18 11:28:40;;;;;;;;;;;307.20;1254.40;;;;;;5080869;28;19905;-83
2022/03/18 11:31:10;;;;;;;;;;;307.50;1228.80;;;;;;5080723;28;19962;-79
2022/03/18 11:33:37;;;;;;;;;;;307.60;1228.80;;;;;;5078380;28;19999;-79
2022/03/18 11:36:04;;;;;;;;;;;307.90;1203.20;;;;;;5077268;28;19912;-77
2022/03/18 11:38:51;;;;;;;;;;;308.10;1228.80;;;;;;5081210;28;19904;-78
2022/03/18 11:41:17;;;;;;;;;;;332.90;1203.20;;;;;;5079733;28;20267;-77
2022/03/18 11:43:43;;;;;;;;;;;308.10;1177.60;;;;;;5076246;28;19912;-77
2022/03/18 11:46:19;;;;;;;;;;;308.00;1203.20;;;;;;5076105;28;19904;-77
2022/03/18 11:48:52;;;;;;;;;;;307.80;1203.20;;;;;;5081572;28;19904;-78
2022/03/18 11:51:39;;;;;;;;;;;307.80;1203.20;;;;;;5079694;28;20279;-78
2022/03/18 11:54:16;;;;;;;;;;;307.50;1203.20;;;;;;5087565;28;19953;-79
2022/03/18 11:56:49;;;;;;;;;;;307.70;1203.20;;;;;;5094086;28;19934;-78
2022/03/18 11:59:23;;;;;;;;;;;307.90;1203.20;;;;;;5093405;28;19904;-78
2022/03/18 12:01:53;;;;;;;;;;;308.10;1177.60;;;;;;5092587;28;19961;-78
2022/03/18 12:04:38;;;;;;;;;;;333.00;1228.80;;;;;;5096731;28;19908;-78
2022/03/18 12:07:10;;;;;;;;;;;333.10;1177.60;;;;;;5096923;28;20014;-80
2022/03/18 12:09:53;;;;;;;;;;;333.60;1152.00;;;;;;5094478;28;19909;-77
2022/03/18 12:12:21;;;;;;;;;;;333.70;1152.00;;;;;;5085298;28;19905;-77
2022/03/18 12:14:47;;;;;;;;;;;358.40;1177.60;;;;;;5085554;28;19959;-79
2022/03/18 12:17:13;;;;;;;;;;;333.70;1152.00;;;;;;5087948;28;19939;-78
2022/03/18 12:19:38;;;;;;;;;;;333.70;1152.00;;;;;;5087918;28;19905;-78
2022/03/18 12:22:05;;;;;;;;;;;358.80;1126.40;;;;;;5085977;28;19904;-77
2022/03/18 12:24:32;;;;;;;;;;;359.00;1100.80;;;;;;5086046;28;19929;-78
2022/03/18 12:27:00;;;;;;;;;;;358.90;1126.40;;;;;;5086419;28;19905;-79
2022/03/18 12:29:27;;;;;;;;;;;359.20;1100.80;;;;;;5084637;28;19995;-78
2022/03/18 12:32:03;;;;;;;;;;;358.90;1126.40;;;;;;5084757;28;20360;-79
2022/03/18 12:34:28;;;;;;;;;;;358.80;1100.80;;;;;;5086529;28;19907;-78
2022/03/18 12:36:54;;;;;;;;;;;358.70;1100.80;;;;;;5075944;28;19977;-79
2022/03/18 12:39:19;;;;;;;;;;;358.50;1100.80;;;;;;5076006;28;20368;-79
2022/03/18 12:41:45;;;;;;;;;;;358.60;1126.40;;;;;;5075708;28;19904;-80
2022/03/18 12:44:11;;;;;;;;;;;358.80;1126.40;;;;;;5082666;28;19912;-79
2022/03/18 12:46:39;;;;;;;;;;;358.50;1126.40;;;;;;5086668;28;19950;-82
2022/03/18 12:49:09;;;;;;;;;;;358.70;1152.00;;;;;;5084789;28;19986;-81
2022/03/18 12:51:35;;;;;;;;;;;358.70;1152.00;;;;;;5093141;28;19963;-82
2022/03/18 12:54:01;;;;;;;;;;;358.60;1126.40;;;;;;5096467;28;19912;-80
2022/03/18 12:56:30;;;;;;;;;;;358.50;1126.40;;;;;;5090675;28;19970;-80
2022/03/18 12:58:57;;;;;;;;;;;359.00;1126.40;;;;;;5085012;28;20336;-79
2022/03/18 13:01:23;;;;;;;;;;;359.00;1126.40;;;;;;5079214;28;19950;-80
2022/03/18 13:03:51;;;;;;;;;;;384.20;1100.80;;;;;;5076077;28;19940;-79
2022/03/18 13:06:22;;;;;;;;;;;384.00;1100.80;;;;;;5077241;28;19911;-80
2022/03/18 13:08:54;;;;;;;;;;;384.00;1100.80;;;;;;5075726;28;20348;-78
2022/03/18 13:11:20;;;;;;;;;;;384.00;1075.20;;;;;;5075711;28;19912;-80
2022/03/18 13:13:46;;;;;;;;;;;384.30;1100.80;;;;;;5074874;28;20333;-80
2022/03/18 13:16:13;;;;;;;;;;;384.30;1100.80;;;;;;5075350;28;19916;-78
2022/03/18 13:18:47;;;;;;;;;;;384.30;1152.00;;;;;;5075387;28;19934;-77
2022/03/18 13:21:13;;;;;;;;;;;384.10;1126.40;;;;;;5075193;28;20008;-78
2022/03/18 13:23:40;;;;;;;;;;;384.00;1100.80;;;;;;5077827;28;20003;-77
2022/03/18 13:26:06;;;;;;;;;;;359.10;1126.40;;;;;;5085459;28;19904;-79
2022/03/18 13:28:32;;;;;;;;;;;359.10;1126.40;;;;;;5089995;28;19957;-80
2022/03/18 13:33:42;;;;;;;;;;;358.70;1152.00;;;;;;5085023;28;19962;-79
2022/03/18 13:36:24;;;;;;;;;;;358.70;1152.00;;;;;;5084804;28;19924;-79
2022/03/18 13:38:51;;;;;;;;;;;359.00;1126.40;;;;;;5083416;28;19936;-78
2022/03/18 13:41:16;;;;;;;;;;;359.20;1126.40;;;;;;5086293;28;19904;-79
2022/03/18 13:43:46;;;;;;;;;;;359.30;1126.40;;;;;;5084535;28;19905;-79
2022/03/18 13:46:21;;;;;;;;;;;359.10;1100.80;;;;;;5084448;28;19908;-79
2022/03/18 13:48:48;;;;;;;;;;;359.20;1126.40;;;;;;5084749;28;19904;-79
2022/03/18 13:51:33;;;;;;;;;;;359.30;1126.40;;;;;;5081108;28;19916;-79
2022/03/18 13:54:09;;;;;;;;;;;359.20;1100.80;;;;;;5075993;28;20340;-79
2022/03/18 13:56:35;;;;;;;;;;;359.30;1126.40;;;;;;5075860;28;19919;-79
2022/03/18 13:59:08;;;;;;;;;;;359.30;1100.80;;;;;;5081868;28;19920;-79
2022/03/18 14:01:34;;;;;;;;;;;359.30;1100.80;;;;;;5082120;28;19908;-78